createdAt,value
2019-02-02T00:00:52.112Z,87.08
2019-02-02T00:03:24.301Z,86.90
2019-02-02T00:05:56.000Z,86.09
2019-02-02T00:08:26.961Z,86.20
2019-02-02T00:10:57.867Z,86.48
2019-02-02T00:13:29.227Z,86.49
2019-02-02T00:15:59.796Z,86.18
2019-02-02T00:18:30.151Z,86.11
2019-02-02T00:21:01.907Z,86.09
2019-02-02T00:23:32.662Z,86.07
2019-02-02T00:26:05.105Z,85.85
2019-02-02T00:28:37.174Z,86.22
2019-02-02T00:31:08.229Z,86.65
2019-02-02T00:33:39.135Z,87.05
2019-02-02T00:36:10.306Z,87.08
2019-02-02T00:38:41.199Z,87.10
2019-02-02T00:41:12.317Z,87.16
2019-02-02T00:43:44.274Z,87.42
2019-02-02T00:46:17.335Z,87.71
2019-02-02T00:48:48.322Z,87.79
2019-02-02T00:51:19.368Z,87.47
2019-02-02T00:53:50.367Z,87.08
2019-02-02T00:56:21.197Z,87.14
2019-02-02T00:58:52.220Z,87.25
2019-02-02T01:01:23.277Z,87.48
2019-02-02T01:03:55.227Z,87.75
2019-02-02T01:06:25.644Z,87.34
2019-02-02T01:08:56.542Z,87.26
2019-02-02T01:11:27.349Z,87.23
2019-02-02T01:13:58.280Z,87.45
2019-02-02T01:16:30.423Z,87.19
2019-02-02T01:19:03.525Z,86.77
2019-02-02T01:21:34.527Z,86.07
2019-02-02T01:24:06.542Z,86.83
2019-02-02T01:26:38.498Z,86.98
2019-02-02T01:29:09.340Z,87.24
2019-02-02T01:31:40.971Z,87.67
2019-02-02T01:34:12.558Z,88.03
2019-02-02T01:36:45.025Z,87.80
2019-02-02T01:39:16.339Z,87.68
2019-02-02T01:41:47.436Z,87.19
2019-02-02T01:44:18.509Z,87.04
2019-02-02T01:46:49.390Z,86.99
2019-02-02T01:49:20.350Z,86.98
2019-02-02T01:51:51.252Z,87.04
2019-02-02T01:54:22.254Z,86.86
2019-02-02T01:56:52.637Z,86.55
2019-02-02T01:59:24.058Z,86.89
2019-02-02T02:01:55.113Z,86.85
2019-02-02T02:04:25.903Z,86.91
2019-02-02T02:06:56.810Z,87.14
2019-02-02T02:09:27.529Z,87.06
2019-02-02T02:11:58.921Z,87.21
2019-02-02T02:14:29.432Z,87.56
2019-02-02T02:17:00.232Z,87.53
2019-02-02T02:19:30.691Z,87.86
2019-02-02T02:22:01.672Z,87.47
2019-02-02T02:24:32.979Z,87.24
2019-02-02T02:27:03.852Z,87.15
2019-02-02T02:29:34.773Z,86.89
2019-02-02T02:32:05.703Z,86.88
2019-02-02T02:34:36.742Z,87.16
2019-02-02T02:37:07.705Z,87.04
2019-02-02T02:39:38.434Z,87.32
2019-02-02T02:42:08.828Z,87.66
2019-02-02T02:44:39.784Z,87.83
2019-02-02T02:47:10.721Z,87.92
2019-02-02T02:49:41.762Z,87.67
2019-02-02T02:52:12.807Z,87.03
2019-02-02T02:54:43.725Z,86.84
2019-02-02T02:57:14.736Z,87.03
2019-02-02T02:59:45.836Z,86.73
2019-02-02T03:02:16.601Z,86.77
2019-02-02T03:04:47.593Z,86.64
2019-02-02T03:07:19.515Z,86.71
2019-02-02T03:09:52.026Z,86.92
2019-02-02T03:12:23.011Z,86.66
2019-02-02T03:14:53.912Z,86.21
2019-02-02T03:17:24.464Z,86.33
2019-02-02T03:19:55.987Z,86.53
2019-02-02T03:22:28.003Z,86.72
2019-02-02T03:24:59.966Z,86.53
2019-02-02T03:27:31.977Z,86.56
2019-02-02T03:30:02.922Z,87.10
2019-02-02T03:32:33.853Z,87.51
2019-02-02T03:35:05.816Z,87.47
2019-02-02T03:37:37.900Z,87.73
2019-02-02T03:40:11.846Z,87.44
2019-02-02T03:42:43.151Z,87.00
2019-02-02T03:45:15.673Z,86.53
2019-02-02T03:47:48.110Z,86.13
2019-02-02T03:50:19.053Z,86.04
2019-02-02T03:52:50.036Z,85.67
2019-02-02T03:55:21.051Z,85.92
2019-02-02T03:57:51.939Z,86.28
2019-02-02T04:00:23.104Z,86.32
2019-02-02T04:02:53.753Z,86.35
2019-02-02T04:05:26.694Z,86.39
2019-02-02T04:07:59.249Z,86.58
2019-02-02T04:10:30.151Z,86.65
2019-02-02T04:13:03.133Z,86.95
2019-02-02T04:15:34.079Z,87.31
2019-02-02T04:18:05.200Z,87.61
2019-02-02T04:20:36.150Z,87.57
2019-02-02T04:23:07.171Z,87.68
2019-02-02T04:25:38.141Z,87.86
2019-02-02T04:28:09.277Z,87.71
2019-02-02T04:30:41.254Z,88.08
2019-02-02T04:33:14.223Z,88.49
2019-02-02T04:35:45.186Z,88.86
2019-02-02T04:38:16.404Z,88.82
2019-02-02T04:40:47.401Z,88.74
2019-02-02T04:43:18.349Z,88.98
2019-02-02T04:45:49.367Z,88.97
2019-02-02T04:48:20.631Z,89.15
2019-02-02T04:50:53.269Z,89.29
2019-02-02T04:53:24.498Z,88.96
2019-02-02T04:55:56.394Z,88.31
2019-02-02T04:58:28.420Z,88.36
2019-02-02T05:01:00.784Z,87.88
2019-02-02T05:03:31.472Z,87.13
2019-02-02T05:06:02.322Z,86.95
2019-02-02T05:08:33.549Z,86.50
2019-02-02T05:11:04.399Z,86.68
2019-02-02T05:13:35.341Z,86.48
2019-02-02T05:16:06.212Z,86.61
2019-02-02T05:18:37.123Z,86.73
2019-02-02T05:21:08.129Z,86.54
2019-02-02T05:23:39.107Z,86.81
2019-02-02T05:26:10.139Z,86.48
2019-02-02T05:28:41.512Z,86.52
2019-02-02T05:31:12.663Z,87.02
2019-02-02T05:33:44.296Z,86.85
2019-02-02T05:36:15.350Z,86.90
2019-02-02T05:38:46.209Z,86.76
2019-02-02T05:41:16.643Z,86.58
2019-02-02T05:43:47.498Z,85.86
2019-02-02T05:46:18.637Z,85.61
2019-02-02T05:48:49.518Z,85.17
2019-02-02T05:51:20.739Z,85.57
2019-02-02T05:53:51.642Z,85.71
2019-02-02T05:56:22.685Z,85.79
2019-02-02T05:58:54.101Z,86.02
2019-02-02T06:01:25.028Z,86.00
2019-02-02T06:03:55.730Z,85.75
2019-02-02T06:06:26.856Z,85.82
2019-02-02T06:08:57.790Z,85.40
2019-02-02T06:11:28.727Z,85.57
2019-02-02T06:13:59.582Z,85.44
2019-02-02T06:16:30.502Z,85.61
2019-02-02T06:19:01.380Z,85.28
2019-02-02T06:21:32.201Z,84.51
2019-02-02T06:24:02.714Z,83.62
2019-02-02T06:26:34.156Z,83.13
2019-02-02T06:29:05.183Z,83.01
2019-02-02T06:31:35.979Z,83.08
2019-02-02T06:34:06.870Z,83.36
2019-02-02T06:36:37.935Z,83.88
2019-02-02T06:39:09.137Z,83.62
2019-02-02T06:41:39.768Z,84.05
2019-02-02T06:44:10.736Z,84.43
2019-02-02T06:46:43.592Z,84.83
2019-02-02T06:49:15.802Z,84.69
2019-02-02T06:51:46.788Z,84.98
2019-02-02T06:54:18.051Z,85.21
2019-02-02T06:56:48.970Z,84.56
2019-02-02T06:59:19.982Z,84.80
2019-02-02T07:01:50.840Z,84.77
2019-02-02T07:04:23.816Z,85.06
2019-02-02T07:06:54.851Z,85.34
2019-02-02T07:09:25.220Z,84.92
2019-02-02T07:11:56.972Z,84.14
2019-02-02T07:14:27.954Z,82.95
2019-02-02T07:16:58.921Z,81.81
2019-02-02T07:19:30.878Z,81.36
2019-02-02T07:22:04.048Z,81.19
2019-02-02T07:24:35.161Z,80.80
2019-02-02T07:27:05.931Z,80.27
2019-02-02T07:29:37.224Z,80.12
2019-02-02T07:32:08.018Z,79.58
2019-02-02T07:34:38.502Z,77.87
2019-02-02T07:37:08.996Z,77.29
2019-02-02T07:39:40.130Z,76.71
2019-02-02T07:42:11.186Z,76.21
2019-02-02T07:44:42.225Z,76.22
2019-02-02T07:47:13.067Z,76.01
2019-02-02T07:49:44.385Z,75.20
2019-02-02T07:52:15.177Z,75.29
2019-02-02T07:54:46.132Z,75.63
2019-02-02T07:57:17.634Z,75.72
2019-02-02T07:59:49.230Z,75.58
2019-02-02T08:02:20.495Z,74.79
2019-02-02T08:04:53.942Z,74.58
2019-02-02T08:07:25.060Z,74.76
2019-02-02T08:09:57.945Z,74.94
2019-02-02T08:12:28.461Z,74.19
2019-02-02T08:14:59.458Z,74.07
2019-02-02T08:17:32.554Z,73.85
2019-02-02T08:20:05.062Z,73.80
2019-02-02T08:22:38.242Z,73.85
2019-02-02T08:25:10.420Z,73.77
2019-02-02T08:27:43.342Z,73.74
2019-02-02T08:30:20.525Z,73.77
2019-02-02T08:32:51.103Z,74.02
2019-02-02T08:35:22.286Z,74.31
2019-02-02T08:37:53.026Z,74.07
2019-02-02T08:40:25.137Z,74.11
2019-02-02T08:42:57.412Z,73.91
2019-02-02T08:45:29.440Z,73.49
2019-02-02T08:48:01.388Z,73.18
2019-02-02T08:50:35.815Z,72.36
2019-02-02T08:53:08.246Z,71.83
2019-02-02T08:55:38.885Z,71.45
2019-02-02T08:58:09.452Z,70.55
2019-02-02T09:00:40.543Z,69.81
2019-02-02T09:03:12.031Z,69.91
2019-02-02T09:05:42.474Z,69.05
2019-02-02T09:08:13.423Z,68.27
2019-02-02T09:10:44.427Z,67.54
2019-02-02T09:13:15.514Z,67.43
2019-02-02T09:15:47.712Z,67.23
2019-02-02T09:18:20.584Z,66.95
2019-02-02T09:20:51.660Z,66.29
2019-02-02T09:23:24.484Z,66.51
2019-02-02T09:25:56.096Z,67.34
2019-02-02T09:28:27.049Z,67.01
2019-02-02T09:30:57.971Z,66.77
2019-02-02T09:33:28.541Z,67.60
2019-02-02T09:36:00.789Z,67.77
2019-02-02T09:38:31.135Z,67.49
2019-02-02T09:41:01.709Z,68.59
2019-02-02T09:43:32.630Z,69.54
2019-02-02T09:46:04.770Z,70.43
2019-02-02T09:48:36.856Z,71.55
2019-02-02T09:51:10.331Z,71.71
2019-02-02T09:53:42.773Z,72.13
2019-02-02T09:56:13.690Z,72.43
2019-02-02T09:58:44.727Z,72.72
2019-02-02T10:01:27.092Z,72.60
2019-02-02T10:03:49.688Z,72.85
2019-02-02T10:06:20.848Z,73.30
2019-02-02T10:08:51.240Z,73.97
2019-02-02T10:11:24.291Z,73.91
2019-02-02T10:13:56.802Z,73.67
2019-02-02T10:16:28.783Z,73.41
2019-02-02T10:19:01.830Z,73.32
2019-02-02T10:21:32.821Z,72.59
2019-02-02T10:24:04.469Z,71.40
2019-02-02T10:26:34.812Z,70.85
2019-02-02T10:29:05.568Z,70.26
2019-02-02T10:31:39.679Z,70.12
2019-02-02T10:34:12.353Z,70.07
2019-02-02T10:36:43.841Z,69.48
2019-02-02T10:39:14.933Z,68.80
2019-02-02T10:41:46.015Z,68.29
2019-02-02T10:44:16.954Z,67.62
2019-02-02T10:46:47.920Z,67.22
2019-02-02T10:49:18.879Z,66.14
2019-02-02T10:51:49.994Z,65.93
2019-02-02T10:54:20.864Z,65.20
2019-02-02T10:56:51.887Z,64.97
2019-02-02T10:59:23.098Z,65.13
2019-02-02T11:01:53.869Z,65.10
2019-02-02T11:04:25.280Z,65.11
2019-02-02T11:06:56.036Z,65.08
2019-02-02T11:09:29.116Z,65.14
2019-02-02T11:12:02.153Z,65.11
2019-02-02T11:14:35.256Z,65.11
2019-02-02T11:17:08.159Z,64.53
2019-02-02T11:19:40.930Z,64.22
2019-02-02T11:22:13.301Z,64.38
2019-02-02T11:24:44.085Z,64.34
2019-02-02T11:27:15.305Z,63.24
2019-02-02T11:29:46.290Z,62.50
2019-02-02T11:32:17.140Z,62.29
2019-02-02T11:34:48.089Z,61.93
2019-02-02T11:37:19.195Z,61.69
2019-02-02T11:39:50.168Z,61.65
2019-02-02T11:42:21.176Z,61.75
2019-02-02T11:44:52.229Z,61.96
2019-02-02T11:47:25.120Z,61.80
2019-02-02T11:49:57.917Z,61.86
2019-02-02T11:52:28.278Z,62.57
2019-02-02T11:55:01.122Z,63.24
2019-02-02T11:57:32.397Z,63.28
2019-02-02T12:00:08.736Z,62.84
2019-02-02T12:02:49.182Z,62.47
2019-02-02T12:05:14.603Z,62.27
2019-02-02T12:07:45.374Z,62.18
2019-02-02T12:10:17.895Z,62.25
2019-02-02T12:12:50.464Z,62.34
2019-02-02T12:15:21.434Z,62.15
2019-02-02T12:17:52.467Z,62.09
2019-02-02T12:20:23.733Z,62.01
2019-02-02T12:22:54.267Z,62.10
2019-02-02T12:25:26.379Z,62.13
2019-02-02T12:27:59.392Z,61.83
2019-02-02T12:30:35.458Z,61.46
2019-02-02T12:33:06.839Z,61.62
2019-02-02T12:35:37.370Z,61.75
2019-02-02T12:38:08.461Z,61.77
2019-02-02T12:40:39.683Z,61.91
2019-02-02T12:43:11.649Z,62.12
2019-02-02T12:45:47.115Z,62.29
2019-02-02T12:48:18.421Z,61.93
2019-02-02T12:50:49.634Z,60.98
2019-02-02T12:53:20.582Z,59.70
2019-02-02T12:55:51.405Z,58.92
2019-02-02T12:58:22.500Z,58.60
2019-02-02T13:00:53.476Z,58.03
2019-02-02T13:03:23.817Z,57.82
2019-02-02T13:05:55.656Z,58.40
2019-02-02T13:08:26.809Z,59.79
2019-02-02T13:10:59.508Z,60.57
2019-02-02T13:13:31.548Z,61.49
2019-02-02T13:16:04.567Z,61.81
2019-02-02T13:18:34.908Z,62.04
2019-02-02T13:21:06.735Z,62.17
2019-02-02T13:23:39.526Z,61.80
2019-02-02T13:26:11.671Z,61.73
2019-02-02T13:28:42.586Z,61.86
2019-02-02T13:31:13.695Z,61.58
2019-02-02T13:33:44.636Z,61.27
2019-02-02T13:36:15.746Z,60.99
2019-02-02T13:38:46.605Z,61.72
2019-02-02T13:41:17.256Z,61.97
2019-02-02T13:43:48.704Z,62.30
2019-02-02T13:46:19.090Z,62.42
2019-02-02T13:48:51.155Z,62.10
2019-02-02T13:51:21.778Z,61.94
2019-02-02T13:53:52.535Z,62.34
2019-02-02T13:56:23.512Z,62.35
2019-02-02T13:58:54.579Z,62.96
2019-02-02T14:01:25.467Z,63.31
2019-02-02T14:03:56.679Z,63.66
2019-02-02T14:06:27.563Z,64.10
2019-02-02T14:08:58.515Z,64.24
2019-02-02T14:11:28.951Z,64.21
2019-02-02T14:14:00.227Z,64.44
2019-02-02T14:16:31.436Z,64.00
2019-02-02T14:19:03.015Z,63.98
2019-02-02T14:21:33.514Z,63.63
2019-02-02T14:24:03.844Z,63.44
2019-02-02T14:26:35.251Z,63.59
2019-02-02T14:29:05.878Z,63.79
2019-02-02T14:31:37.365Z,63.76
2019-02-02T14:34:08.260Z,64.03
2019-02-02T14:36:39.184Z,64.02
2019-02-02T14:39:11.914Z,63.36
2019-02-02T14:41:43.893Z,61.55
2019-02-02T14:44:15.006Z,59.71
2019-02-02T14:46:45.943Z,58.49
2019-02-02T14:49:17.807Z,57.94
2019-02-02T14:51:50.886Z,57.72
2019-02-02T14:54:22.097Z,56.81
2019-02-02T14:56:52.974Z,56.56
2019-02-02T14:59:23.916Z,55.93
2019-02-02T15:01:55.098Z,55.31
2019-02-02T15:04:25.911Z,54.84
2019-02-02T15:06:57.072Z,54.79
2019-02-02T15:09:29.001Z,54.18
2019-02-02T15:12:01.171Z,55.34
2019-02-02T15:14:32.142Z,56.75
2019-02-02T15:17:04.207Z,58.06
2019-02-02T15:19:35.137Z,58.91
2019-02-02T15:22:08.138Z,59.47
2019-02-02T15:24:39.134Z,60.32
2019-02-02T15:27:10.328Z,60.04
2019-02-02T15:29:41.395Z,60.23
2019-02-02T15:32:12.274Z,59.81
2019-02-02T15:34:43.178Z,59.89
2019-02-02T15:37:14.274Z,60.81
2019-02-02T15:39:45.319Z,62.07
2019-02-02T15:42:16.299Z,62.89
2019-02-02T15:44:47.301Z,64.10
2019-02-02T15:47:18.316Z,64.81
2019-02-02T15:49:50.649Z,65.87
2019-02-02T15:52:23.028Z,66.34
2019-02-02T15:54:53.949Z,67.25
2019-02-02T15:57:24.882Z,67.99
2019-02-02T15:59:55.456Z,68.69
2019-02-02T16:02:25.901Z,69.46
2019-02-02T16:04:57.402Z,69.77
2019-02-02T16:07:28.850Z,70.21
2019-02-02T16:09:59.624Z,70.12
2019-02-02T16:12:30.602Z,70.03
2019-02-02T16:15:01.362Z,70.09
2019-02-02T16:17:32.440Z,69.95
2019-02-02T16:20:03.447Z,69.94
2019-02-02T16:22:34.396Z,69.02
2019-02-02T16:25:06.705Z,68.66
2019-02-02T16:27:39.585Z,69.11
2019-02-02T16:30:12.474Z,69.95
2019-02-02T16:32:44.361Z,70.81
2019-02-02T16:35:15.681Z,70.59
2019-02-02T16:37:46.451Z,70.76
2019-02-02T16:40:19.467Z,70.46
2019-02-02T16:42:53.509Z,70.71
2019-02-02T16:45:27.209Z,71.96
2019-02-02T16:47:58.652Z,72.47
2019-02-02T16:50:29.685Z,67.60
2019-02-02T16:53:00.504Z,65.59
2019-02-02T16:55:32.236Z,64.29
2019-02-02T16:58:03.241Z,64.18
2019-02-02T17:00:34.195Z,63.50
2019-02-02T17:03:05.049Z,63.30
2019-02-02T17:05:36.110Z,61.91
2019-02-02T17:08:06.943Z,62.38
2019-02-02T17:10:38.649Z,62.19
2019-02-02T17:13:09.013Z,62.62
2019-02-02T17:15:39.691Z,63.32
2019-02-02T17:18:10.607Z,63.26
2019-02-02T17:20:45.624Z,63.39
2019-02-02T17:23:18.758Z,63.46
2019-02-02T17:25:49.649Z,63.37
2019-02-02T17:28:20.583Z,63.40
2019-02-02T17:30:51.664Z,63.68
2019-02-02T17:33:22.770Z,63.76
2019-02-02T17:35:53.894Z,63.75
2019-02-02T17:38:25.734Z,63.93
2019-02-02T17:40:58.795Z,64.61
2019-02-02T17:43:31.723Z,64.27
2019-02-02T17:46:02.829Z,64.84
2019-02-02T17:48:34.976Z,65.15
2019-02-02T17:51:07.902Z,65.19
2019-02-02T17:53:38.982Z,64.98
2019-02-02T17:56:09.737Z,64.82
2019-02-02T17:58:41.051Z,65.09
2019-02-02T18:01:11.861Z,65.23
2019-02-02T18:03:42.851Z,65.63
2019-02-02T18:06:13.966Z,65.99
2019-02-02T18:08:45.014Z,66.27
2019-02-02T18:11:15.824Z,66.31
2019-02-02T18:13:46.876Z,66.14
2019-02-02T18:16:17.915Z,66.35
2019-02-02T18:18:48.977Z,66.82
2019-02-02T18:21:19.730Z,67.14
2019-02-02T18:23:50.494Z,67.74
2019-02-02T18:26:21.013Z,68.29
2019-02-02T18:28:53.956Z,68.46
2019-02-02T18:31:27.400Z,68.35
2019-02-02T18:34:01.990Z,68.24
2019-02-02T18:36:35.009Z,68.04
2019-02-02T18:39:09.530Z,68.30
2019-02-02T18:41:42.005Z,66.89
2019-02-02T18:44:13.095Z,67.32
2019-02-02T18:46:44.435Z,67.50
2019-02-02T18:49:15.008Z,67.97
2019-02-02T18:51:46.144Z,68.29
2019-02-02T18:54:17.183Z,67.69
2019-02-02T18:56:47.903Z,68.01
2019-02-02T18:59:19.003Z,67.65
2019-02-02T19:01:49.857Z,67.69
2019-02-02T19:04:20.787Z,68.03
2019-02-02T19:06:51.206Z,68.39
2019-02-02T19:09:22.128Z,68.10
2019-02-02T19:11:53.145Z,68.93
2019-02-02T19:14:24.624Z,68.89
2019-02-02T19:17:01.059Z,69.05
2019-02-02T19:19:29.342Z,69.57
2019-02-02T19:22:00.212Z,69.54
2019-02-02T19:24:31.161Z,69.65
2019-02-02T19:27:02.279Z,69.95
2019-02-02T19:29:33.229Z,70.50
2019-02-02T19:32:06.775Z,71.06
2019-02-02T19:34:38.326Z,71.36
2019-02-02T19:37:09.210Z,71.44
2019-02-02T19:39:45.116Z,71.56
2019-02-02T19:42:14.366Z,71.65
2019-02-02T19:44:45.196Z,71.81
2019-02-02T19:47:16.510Z,72.04
2019-02-02T19:49:47.384Z,72.24
2019-02-02T19:52:18.758Z,71.83
2019-02-02T19:54:51.330Z,72.07
2019-02-02T19:57:22.285Z,72.47
2019-02-02T19:59:53.407Z,72.71
2019-02-02T20:02:24.458Z,73.02
2019-02-02T20:04:55.383Z,73.36
2019-02-02T20:07:25.881Z,73.44
2019-02-02T20:09:58.289Z,73.81
2019-02-02T20:12:29.473Z,74.19
2019-02-02T20:15:02.948Z,74.53
2019-02-02T20:17:34.362Z,74.75
2019-02-02T20:20:10.446Z,75.02
2019-02-02T20:22:41.415Z,75.00
2019-02-02T20:25:12.607Z,75.66
2019-02-02T20:27:43.622Z,76.44
2019-02-02T20:30:19.154Z,77.02
2019-02-02T20:32:50.519Z,77.83
2019-02-02T20:35:21.402Z,78.74
2019-02-02T20:37:52.463Z,78.20
2019-02-02T20:40:24.456Z,76.94
2019-02-02T20:42:57.631Z,76.88
2019-02-02T20:45:31.090Z,77.11
2019-02-02T20:48:03.520Z,77.94
2019-02-02T20:50:36.708Z,78.30
2019-02-02T20:53:09.444Z,79.35
2019-02-02T20:55:43.409Z,80.19
2019-02-02T20:58:17.213Z,79.92
2019-02-02T21:00:49.545Z,81.18
2019-02-02T21:03:20.448Z,81.75
2019-02-02T21:05:52.644Z,81.72
2019-02-02T21:08:25.682Z,82.22
2019-02-02T21:10:56.711Z,82.59
2019-02-02T21:13:29.661Z,83.57
2019-02-02T21:16:02.687Z,83.95
2019-02-02T21:18:33.708Z,84.91
2019-02-02T21:21:06.350Z,85.09
2019-02-02T21:23:36.803Z,84.24
2019-02-02T21:26:07.673Z,83.53
2019-02-02T21:28:49.782Z,83.98
2019-02-02T21:31:12.788Z,84.31
2019-02-02T21:33:43.888Z,84.91
2019-02-02T21:36:16.499Z,85.26
2019-02-02T21:38:48.763Z,85.60
2019-02-02T21:41:19.710Z,85.28
2019-02-02T21:43:50.702Z,84.77
2019-02-02T21:46:21.728Z,85.57
2019-02-02T21:48:52.600Z,86.22
2019-02-02T21:51:23.392Z,86.36
2019-02-02T21:53:53.905Z,86.80
2019-02-02T21:56:24.948Z,86.01
2019-02-02T21:58:55.899Z,85.97
2019-02-02T22:01:26.393Z,86.64
2019-02-02T22:03:57.968Z,87.34
2019-02-02T22:06:30.657Z,87.15
2019-02-02T22:09:04.217Z,87.15
2019-02-02T22:11:36.871Z,86.93
2019-02-02T22:14:07.982Z,86.46
2019-02-02T22:16:39.057Z,86.58
2019-02-02T22:19:09.837Z,86.77
2019-02-02T22:21:41.030Z,87.53
2019-02-02T22:24:12.056Z,87.82
2019-02-02T22:26:45.082Z,87.11
2019-02-02T22:29:16.017Z,87.79
2019-02-02T22:31:46.927Z,88.38
2019-02-02T22:34:18.077Z,88.69
2019-02-02T22:36:49.216Z,88.93
2019-02-02T22:39:20.043Z,89.65
2019-02-02T22:41:50.993Z,89.91
2019-02-02T22:44:22.141Z,89.51
2019-02-02T22:46:53.265Z,89.84
2019-02-02T22:49:24.058Z,90.16
2019-02-02T22:51:55.250Z,90.03
2019-02-02T22:54:26.017Z,90.09
2019-02-02T22:56:57.207Z,90.69
2019-02-02T22:59:30.101Z,91.32
2019-02-02T23:02:09.966Z,90.97
2019-02-02T23:05:00.719Z,91.32
2019-02-02T23:07:58.731Z,91.43
2019-02-02T23:11:11.467Z,91.58
2019-02-02T23:14:25.280Z,91.77
2019-02-02T23:16:55.747Z,91.68
2019-02-02T23:19:26.498Z,92.12
2019-02-02T23:21:57.537Z,92.21
2019-02-02T23:24:28.367Z,91.77
2019-02-02T23:26:59.160Z,91.50
2019-02-02T23:29:30.257Z,91.34
2019-02-02T23:32:01.170Z,91.54
2019-02-02T23:34:31.544Z,91.87
2019-02-02T23:37:03.321Z,92.11
2019-02-02T23:39:34.291Z,92.19
2019-02-02T23:42:05.431Z,92.12
2019-02-02T23:44:36.244Z,92.25
2019-02-02T23:47:07.255Z,92.24
2019-02-02T23:49:38.223Z,92.15
2019-02-02T23:52:09.246Z,92.30
2019-02-02T23:54:39.965Z,92.37
2019-02-02T23:57:10.462Z,92.05
2019-02-02T23:59:41.486Z,92.05
